createdAt,value
2018-12-16T03:14:09.429Z,0.51
2018-12-16T03:15:09.387Z,0.57
2018-12-16T03:16:09.347Z,0.52
2018-12-16T03:17:09.362Z,0.62
2018-12-16T03:18:09.284Z,0.76
2018-12-16T03:19:09.268Z,0.80
2018-12-16T03:20:09.263Z,0.72
2018-12-16T03:21:09.250Z,0.65
2018-12-16T03:22:09.212Z,0.70
2018-12-16T03:23:12.507Z,0.76
2018-12-16T03:24:09.397Z,0.71
2018-12-16T03:25:09.196Z,0.53
2018-12-16T03:26:09.171Z,0.51
2018-12-16T03:27:09.148Z,0.62
2018-12-16T03:28:09.120Z,0.49
2018-12-16T03:29:09.118Z,0.61
2018-12-16T03:30:09.116Z,0.53
2018-12-16T03:31:09.083Z,0.49
2018-12-16T03:32:09.102Z,0.46
2018-12-16T03:33:09.075Z,0.51
2018-12-16T03:34:09.054Z,0.51
2018-12-16T03:35:09.067Z,0.43
2018-12-16T03:36:09.017Z,0.57
2018-12-16T03:37:08.997Z,0.48
2018-12-16T03:38:08.982Z,0.57
2018-12-16T03:39:08.982Z,0.46
2018-12-16T03:40:08.949Z,0.34
2018-12-16T03:41:08.940Z,0.38
2018-12-16T03:42:08.956Z,0.27
2018-12-16T03:43:08.917Z,0.24
2018-12-16T03:44:08.930Z,0.21
2018-12-16T03:45:08.892Z,0.18
2018-12-16T03:46:08.866Z,0.15
2018-12-16T03:47:08.854Z,0.06
2018-12-16T03:48:08.852Z,-0.04
2018-12-16T03:49:08.912Z,0.24
2018-12-16T03:50:08.833Z,0.15
2018-12-16T03:51:08.805Z,0.21
2018-12-16T03:52:08.786Z,0.09
2018-12-16T03:53:08.772Z,0.24
2018-12-16T03:54:08.786Z,0.27
2018-12-16T03:55:08.772Z,0.38
2018-12-16T03:56:08.727Z,0.27
2018-12-16T03:57:08.728Z,0.16
2018-12-16T03:58:08.718Z,0.20
2018-12-16T03:59:08.713Z,0.25
2018-12-16T04:00:08.686Z,-0.01
2018-12-16T04:01:08.695Z,-0.04
2018-12-16T04:02:08.649Z,-0.08
2018-12-16T04:03:08.644Z,0.00
2018-12-16T04:04:08.651Z,-0.15
2018-12-16T04:05:08.643Z,-0.23
2018-12-16T04:06:08.662Z,-0.30
2018-12-16T04:07:08.589Z,-0.27
2018-12-16T04:08:08.589Z,-0.19
2018-12-16T04:09:08.575Z,-0.22
2018-12-16T04:10:08.570Z,-0.29
2018-12-16T04:11:08.520Z,-0.26
2018-12-16T04:12:08.556Z,-0.26
2018-12-16T04:13:08.524Z,-0.23
2018-12-16T04:14:08.502Z,-0.31
2018-12-16T04:15:08.528Z,-0.31
2018-12-16T04:16:08.468Z,-0.34
2018-12-16T04:17:08.463Z,-0.39
2018-12-16T04:18:08.462Z,-0.34
2018-12-16T04:19:08.453Z,-0.36
2018-12-16T04:20:08.434Z,-0.41
2018-12-16T04:21:08.382Z,-0.42
2018-12-16T04:22:08.362Z,-0.41
2018-12-16T04:23:08.367Z,-0.37
2018-12-16T04:24:08.360Z,-0.24
2018-12-16T04:25:08.359Z,-0.30
2018-12-16T04:26:08.305Z,-0.34
2018-12-16T04:27:08.286Z,-0.44
2018-12-16T04:28:17.128Z,-0.45
2018-12-16T04:30:09.728Z,-0.44
2018-12-16T04:31:01.945Z,-0.34
2018-12-16T04:32:02.165Z,-0.27
2018-12-16T04:33:01.849Z,-0.24
2018-12-16T04:34:01.830Z,-0.23
2018-12-16T04:35:01.807Z,-0.30
2018-12-16T04:36:01.786Z,-0.34
2018-12-16T04:37:11.456Z,-0.31
2018-12-16T04:39:06.251Z,-0.34
2018-12-16T04:40:06.251Z,-0.29
2018-12-16T04:41:06.224Z,-0.23
2018-12-16T04:42:06.335Z,-0.31
2018-12-16T04:43:06.166Z,-0.24
2018-12-16T04:44:07.292Z,-0.34
2018-12-16T04:45:06.170Z,-0.22
2018-12-16T04:46:06.162Z,-0.22
2018-12-16T04:47:06.126Z,-0.24
2018-12-16T04:48:06.122Z,-0.06
2018-12-16T04:49:06.081Z,-0.08
2018-12-16T04:50:06.087Z,-0.15
2018-12-16T04:51:06.088Z,-0.19
2018-12-16T04:52:06.033Z,-0.15
2018-12-16T04:53:06.038Z,-0.13
2018-12-16T04:54:06.031Z,-0.15
2018-12-16T04:55:05.992Z,-0.11
2018-12-16T04:56:05.983Z,-0.06
2018-12-16T04:57:05.973Z,0.03
2018-12-16T04:58:05.978Z,-0.04
2018-12-16T04:59:05.963Z,-0.06
2018-12-16T05:00:05.948Z,-0.06
2018-12-16T05:01:05.954Z,-0.12
2018-12-16T05:02:05.902Z,-0.11
2018-12-16T05:03:05.892Z,0.02
2018-12-16T05:04:05.882Z,0.09
2018-12-16T05:05:05.850Z,0.10
2018-12-16T05:06:05.838Z,0.09
2018-12-16T05:07:05.833Z,0.13
2018-12-16T05:08:05.826Z,0.00
2018-12-16T05:09:05.812Z,0.05
2018-12-16T05:10:05.779Z,-0.01
2018-12-16T05:11:05.765Z,0.03
2018-12-16T05:12:05.765Z,-0.04
2018-12-16T05:13:05.776Z,0.00
2018-12-16T05:14:05.739Z,0.09
2018-12-16T05:15:05.714Z,0.02
2018-12-16T05:16:05.713Z,0.05
2018-12-16T05:17:05.728Z,0.13
2018-12-16T05:18:05.713Z,0.15
2018-12-16T05:19:05.677Z,0.12
2018-12-16T05:20:05.649Z,0.13
2018-12-16T05:21:05.631Z,0.09
2018-12-16T05:22:05.644Z,0.09
2018-12-16T05:23:05.616Z,0.16
2018-12-16T05:24:05.611Z,0.20
2018-12-16T05:25:05.579Z,0.15
2018-12-16T05:26:05.589Z,0.12
2018-12-16T05:27:05.553Z,0.10
2018-12-16T05:28:14.393Z,0.13
2018-12-16T05:30:10.137Z,0.07
2018-12-16T05:31:18.963Z,0.00
2018-12-16T05:33:14.533Z,0.09
2018-12-16T05:34:14.477Z,0.02
2018-12-16T05:35:14.474Z,0.03
2018-12-16T05:36:14.449Z,0.00
2018-12-16T05:37:14.425Z,-0.15
2018-12-16T05:38:14.420Z,-0.06
2018-12-16T05:39:14.440Z,-0.16
2018-12-16T05:40:14.525Z,-0.12
2018-12-16T05:41:14.393Z,-0.12
2018-12-16T05:42:14.378Z,0.00
2018-12-16T05:43:14.344Z,0.02
2018-12-16T05:44:14.361Z,0.00
2018-12-16T05:45:14.317Z,-0.04
2018-12-16T05:46:14.297Z,0.02
2018-12-16T05:47:14.281Z,-0.05
2018-12-16T05:48:14.320Z,-0.15
2018-12-16T05:49:14.276Z,-0.19
2018-12-16T05:50:14.280Z,-0.15
2018-12-16T05:51:14.288Z,-0.08
2018-12-16T05:52:14.223Z,-0.12
2018-12-16T05:53:14.226Z,-0.05
2018-12-16T05:54:14.221Z,-0.01
2018-12-16T05:55:14.181Z,-0.05
2018-12-16T05:56:14.192Z,-0.11
2018-12-16T05:57:14.154Z,0.06
2018-12-16T05:58:14.181Z,0.03
2018-12-16T05:59:14.136Z,0.10
2018-12-16T06:00:14.151Z,0.05
2018-12-16T06:01:14.094Z,0.09
2018-12-16T06:02:14.092Z,-0.04
2018-12-16T06:03:14.064Z,-0.01
2018-12-16T06:04:14.065Z,-0.09
2018-12-16T06:05:14.039Z,-0.04
2018-12-16T06:06:14.050Z,-0.06
2018-12-16T06:07:14.120Z,-0.12
2018-12-16T06:08:14.005Z,0.02
2018-12-16T06:09:14.004Z,0.05
2018-12-16T06:10:14.005Z,0.05
2018-12-16T06:11:13.999Z,0.06
2018-12-16T06:12:13.977Z,0.15
2018-12-16T06:13:13.927Z,-0.04
2018-12-16T06:14:13.948Z,0.07
2018-12-16T06:15:13.928Z,0.07
2018-12-16T06:16:13.915Z,0.06
2018-12-16T06:17:13.909Z,0.07
2018-12-16T06:18:13.892Z,0.15
2018-12-16T06:19:13.900Z,0.21
2018-12-16T06:20:13.852Z,0.18
2018-12-16T06:21:13.843Z,0.18
2018-12-16T06:22:13.837Z,0.07
2018-12-16T06:23:13.851Z,0.02
2018-12-16T06:24:13.818Z,0.05
2018-12-16T06:25:13.772Z,0.10
2018-12-16T06:26:13.762Z,0.02
2018-12-16T06:27:22.560Z,0.06
2018-12-16T06:29:18.265Z,0.10
2018-12-16T06:30:18.191Z,0.15
2018-12-16T06:31:18.203Z,0.20
2018-12-16T06:32:18.211Z,0.27
2018-12-16T06:33:18.463Z,0.34
2018-12-16T06:34:18.187Z,0.39
2018-12-16T06:35:18.135Z,0.34
2018-12-16T06:36:18.179Z,0.36
2018-12-16T06:37:18.114Z,0.34
2018-12-16T06:38:18.090Z,0.41
2018-12-16T06:39:18.116Z,0.34
2018-12-16T06:40:18.125Z,0.42
2018-12-16T06:41:18.152Z,0.43
2018-12-16T06:42:18.052Z,0.36
2018-12-16T06:43:18.011Z,0.41
2018-12-16T06:44:18.061Z,0.36
2018-12-16T06:45:17.989Z,0.36
2018-12-16T06:46:18.026Z,0.41
2018-12-16T06:47:17.974Z,0.31
2018-12-16T06:48:17.986Z,0.38
2018-12-16T06:49:17.980Z,0.31
2018-12-16T06:50:17.913Z,0.31
2018-12-16T06:51:17.908Z,0.33
2018-12-16T06:52:17.911Z,0.34
2018-12-16T06:53:17.875Z,0.38
2018-12-16T06:54:17.936Z,0.43
2018-12-16T06:55:17.887Z,0.38
2018-12-16T06:56:17.918Z,0.38
2018-12-16T06:57:17.834Z,0.36
2018-12-16T06:58:17.838Z,0.34
2018-12-16T06:59:17.837Z,0.31
2018-12-16T07:00:17.842Z,0.31
2018-12-16T07:01:17.812Z,0.41
2018-12-16T07:02:17.845Z,0.36
2018-12-16T07:03:26.571Z,0.41
2018-12-16T07:05:12.097Z,0.38
2018-12-16T07:06:11.994Z,0.36
2018-12-16T07:07:12.025Z,0.38
2018-12-16T07:08:12.002Z,0.42
2018-12-16T07:09:12.115Z,0.41
2018-12-16T07:10:12.041Z,0.38
2018-12-16T07:11:12.072Z,0.45
2018-12-16T07:12:11.966Z,0.48
2018-12-16T07:13:11.953Z,0.53
2018-12-16T07:14:11.917Z,0.46
2018-12-16T07:15:11.883Z,0.49
2018-12-16T07:16:11.864Z,0.51
2018-12-16T07:17:11.864Z,0.57
2018-12-16T07:18:11.835Z,0.60
2018-12-16T07:19:11.844Z,0.58
2018-12-16T07:20:11.846Z,0.57
2018-12-16T07:21:11.800Z,0.51
2018-12-16T07:22:11.830Z,0.62
2018-12-16T07:23:11.798Z,0.62
2018-12-16T07:24:11.766Z,0.64
2018-12-16T07:25:11.744Z,0.62
2018-12-16T07:26:11.751Z,0.62
2018-12-16T07:27:20.482Z,0.61
2018-12-16T07:29:14.252Z,0.70
2018-12-16T07:30:05.323Z,0.62
2018-12-16T07:31:14.045Z,0.64
2018-12-16T07:33:09.758Z,0.60
2018-12-16T07:34:09.774Z,0.72
2018-12-16T07:35:09.725Z,0.76
2018-12-16T07:36:18.461Z,0.78
2018-12-16T07:38:15.678Z,0.49
2018-12-16T07:39:15.143Z,0.49
2018-12-16T07:40:15.155Z,0.61
2018-12-16T07:41:15.163Z,0.61
2018-12-16T07:42:15.145Z,0.61
2018-12-16T07:43:15.149Z,0.64
2018-12-16T07:44:15.133Z,0.51
2018-12-16T07:45:15.107Z,0.53
2018-12-16T07:46:15.086Z,0.64
2018-12-16T07:47:15.076Z,0.72
2018-12-16T07:48:15.067Z,0.79
2018-12-16T07:49:15.014Z,0.67
2018-12-16T07:50:14.997Z,0.68
2018-12-16T07:51:15.018Z,0.75
2018-12-16T07:52:14.964Z,0.76
2018-12-16T07:53:14.974Z,0.65
2018-12-16T07:54:16.223Z,0.67
2018-12-16T07:55:15.010Z,0.62
2018-12-16T07:56:14.950Z,0.70
2018-12-16T07:57:14.917Z,0.75
2018-12-16T07:58:14.917Z,0.64
2018-12-16T07:59:14.911Z,0.62
2018-12-16T08:00:14.860Z,0.62
2018-12-16T08:01:14.944Z,0.64
2018-12-16T08:02:14.958Z,0.67
2018-12-16T08:03:14.883Z,0.75
2018-12-16T08:04:14.845Z,0.65
2018-12-16T08:05:14.839Z,0.65
2018-12-16T08:06:14.799Z,0.64
2018-12-16T08:07:14.799Z,0.79
2018-12-16T08:08:14.794Z,0.70
2018-12-16T08:09:14.741Z,0.82
2018-12-16T08:10:14.758Z,0.68
2018-12-16T08:11:14.727Z,0.78
2018-12-16T08:12:14.702Z,0.79
2018-12-16T08:13:14.694Z,0.75
2018-12-16T08:14:14.680Z,0.78
2018-12-16T08:15:14.668Z,0.76
2018-12-16T08:16:14.654Z,0.85
2018-12-16T08:17:14.646Z,0.88
2018-12-16T08:18:14.660Z,0.82
2018-12-16T08:19:14.612Z,0.76
2018-12-16T08:20:14.652Z,0.83
2018-12-16T08:21:14.591Z,0.76
2018-12-16T08:22:14.592Z,0.78
2018-12-16T08:23:14.566Z,0.80
2018-12-16T08:24:14.583Z,0.85
2018-12-16T08:25:14.542Z,0.79
2018-12-16T08:26:14.531Z,0.83
2018-12-16T08:27:14.501Z,0.79
2018-12-16T08:28:14.569Z,0.79
2018-12-16T08:29:14.548Z,0.72
2018-12-16T08:30:14.507Z,0.75
2018-12-16T08:31:14.454Z,0.68
2018-12-16T08:32:14.791Z,0.70
2018-12-16T08:33:14.452Z,0.71
2018-12-16T08:34:14.506Z,0.83
2018-12-16T08:35:23.956Z,0.83
2018-12-16T08:37:28.950Z,0.80
2018-12-16T08:38:18.895Z,0.83
2018-12-16T08:39:19.493Z,0.83
2018-12-16T08:40:18.889Z,0.78
2018-12-16T08:41:27.808Z,0.80
2018-12-16T08:43:23.365Z,0.83
2018-12-16T08:44:23.308Z,0.88
2018-12-16T08:45:23.319Z,0.88
2018-12-16T08:46:23.294Z,0.90
2018-12-16T08:47:23.297Z,0.98
2018-12-16T08:48:23.255Z,0.96
2018-12-16T08:49:23.337Z,0.86
2018-12-16T08:50:23.250Z,0.89
2018-12-16T08:51:23.205Z,0.86
2018-12-16T08:52:23.201Z,0.92
2018-12-16T08:53:23.182Z,0.92
2018-12-16T08:54:29.959Z,0.88
2018-12-16T08:55:23.156Z,0.86
2018-12-16T08:56:23.147Z,0.89
2018-12-16T08:57:23.184Z,0.96
2018-12-16T08:58:23.144Z,1.00
2018-12-16T08:59:23.120Z,0.92
2018-12-16T09:00:23.119Z,0.89
2018-12-16T09:01:23.090Z,0.90
2018-12-16T09:02:32.729Z,0.90
2018-12-16T09:04:30.406Z,0.98
2018-12-16T09:05:30.164Z,1.06
2018-12-16T09:07:45.891Z,1.07
2018-12-16T09:08:45.906Z,1.07
2018-12-16T09:09:46.452Z,1.16
2018-12-16T09:10:45.856Z,1.04
2018-12-16T09:11:45.892Z,1.18
2018-12-16T09:12:45.845Z,1.15
2018-12-16T09:13:45.849Z,1.16
2018-12-16T09:14:45.810Z,1.28
2018-12-16T09:15:45.820Z,1.26
2018-12-16T09:16:45.784Z,1.18
2018-12-16T09:17:45.770Z,1.15
2018-12-16T09:18:45.793Z,1.01
2018-12-16T09:19:45.845Z,1.04
2018-12-16T09:20:45.720Z,1.00
2018-12-16T09:21:45.804Z,1.03
2018-12-16T09:22:45.714Z,1.08
2018-12-16T09:23:45.825Z,1.08
2018-12-16T09:24:46.038Z,1.10
2018-12-16T09:25:46.071Z,1.18
2018-12-16T09:28:20.428Z,1.18
2018-12-16T09:29:20.964Z,1.16
2018-12-16T09:31:15.066Z,1.18
2018-12-16T09:32:16.509Z,1.15
2018-12-16T09:33:25.585Z,1.21
2018-12-16T09:34:24.937Z,1.28
2018-12-16T09:36:17.537Z,1.28
2018-12-16T09:37:08.893Z,1.28
2018-12-16T09:41:23.099Z,1.33
2018-12-16T09:42:23.158Z,1.29
2018-12-16T09:43:25.602Z,1.34
2018-12-16T09:47:46.137Z,1.34
2018-12-16T09:48:46.064Z,1.36
2018-12-16T09:49:45.527Z,1.34
2018-12-16T09:50:46.256Z,1.39
2018-12-16T09:51:45.469Z,1.34
2018-12-16T09:52:45.304Z,1.34
2018-12-16T09:53:45.301Z,1.36
2018-12-16T09:54:45.271Z,1.39
2018-12-16T09:55:45.188Z,1.46
2018-12-16T09:56:45.330Z,1.43
2018-12-16T09:57:45.203Z,1.43
2018-12-16T09:58:45.866Z,1.39
2018-12-16T09:59:54.463Z,1.46
2018-12-16T10:01:50.558Z,1.44
2018-12-16T10:03:00.572Z,1.51
2018-12-16T10:05:07.566Z,1.51
2018-12-16T10:08:15.771Z,1.46
2018-12-16T10:09:15.359Z,1.55
2018-12-16T10:10:15.845Z,1.58
2018-12-16T10:11:25.242Z,1.51
2018-12-16T10:13:22.097Z,1.60
2018-12-16T10:14:19.753Z,1.61
2018-12-16T10:15:19.795Z,1.64
2018-12-16T10:16:19.795Z,1.62
